createdAt,value
2018-11-22T00:01:31.503Z,95034.41
2018-11-22T00:04:02.849Z,95033.64
2018-11-22T00:06:34.011Z,95032.75
2018-11-22T00:09:09.267Z,95032.99
2018-11-22T00:11:40.773Z,95039.36
2018-11-22T00:14:11.829Z,95034.23
2018-11-22T00:16:42.904Z,95037.02
2018-11-22T00:19:13.975Z,95034.25
2018-11-22T00:21:44.974Z,95030.06
2018-11-22T00:24:16.029Z,95039.82
2018-11-22T00:26:47.117Z,95041.62
2018-11-22T00:29:18.176Z,95043.51
2018-11-22T00:31:49.371Z,95045.83
2018-11-22T00:34:20.613Z,95045.50
2018-11-22T00:36:51.693Z,95047.70
2018-11-22T00:39:22.858Z,95052.52
2018-11-22T00:41:53.840Z,95048.00
2018-11-22T00:44:24.894Z,95058.44
2018-11-22T00:46:55.954Z,95055.70
2018-11-22T00:49:27.123Z,95064.98
2018-11-22T00:51:58.279Z,95062.71
2018-11-22T00:54:29.422Z,95071.11
2018-11-22T00:57:00.479Z,95063.83
2018-11-22T00:59:31.570Z,95066.40
2018-11-22T01:02:02.787Z,95068.16
2018-11-22T01:04:33.727Z,95066.35
2018-11-22T01:07:04.917Z,95074.22
2018-11-22T01:09:36.006Z,95068.45
2018-11-22T01:12:07.345Z,95068.61
2018-11-22T01:14:38.311Z,95072.33
2018-11-22T01:17:09.437Z,95074.06
2018-11-22T01:19:41.836Z,95076.52
2018-11-22T01:22:13.016Z,95081.31
2018-11-22T01:24:44.160Z,95077.91
2018-11-22T01:27:15.345Z,95070.06
2018-11-22T01:29:46.486Z,95070.84
2018-11-22T01:32:17.741Z,95072.20
2018-11-22T01:34:48.915Z,95077.54
2018-11-22T01:37:21.186Z,95064.05
2018-11-22T01:39:52.407Z,95073.42
2018-11-22T01:42:23.625Z,95071.19
2018-11-22T01:44:54.920Z,95073.41
2018-11-22T01:47:26.232Z,95070.52
2018-11-22T01:49:57.511Z,95073.92
2018-11-22T01:52:28.738Z,95074.52
2018-11-22T01:55:00.085Z,95086.60
2018-11-22T01:57:31.249Z,95078.41
2018-11-22T02:00:02.476Z,95075.80
2018-11-22T02:02:33.658Z,95074.91
2018-11-22T02:05:05.062Z,95070.56
2018-11-22T02:07:36.246Z,95064.23
2018-11-22T02:10:09.888Z,95073.32
2018-11-22T02:12:41.262Z,95069.33
2018-11-22T02:15:31.177Z,95069.04
2018-11-22T02:18:02.408Z,95071.05
2018-11-22T02:20:33.596Z,95084.33
2018-11-22T02:23:04.815Z,95082.10
2018-11-22T02:25:37.343Z,95082.09
2018-11-22T02:28:09.367Z,95084.20
2018-11-22T02:30:40.564Z,95085.68
2018-11-22T02:33:11.869Z,95088.09
2018-11-22T02:35:43.099Z,95090.92
2018-11-22T02:38:14.402Z,95087.92
2018-11-22T02:40:45.586Z,95089.53
2018-11-22T02:43:16.774Z,95093.42
2018-11-22T02:45:48.038Z,95084.13
2018-11-22T02:48:19.223Z,95092.96
2018-11-22T02:50:50.497Z,95091.63
2018-11-22T02:53:21.705Z,95090.59
2018-11-22T02:55:52.879Z,95086.95
2018-11-22T02:58:24.154Z,95091.19
2018-11-22T03:00:55.361Z,95088.56
2018-11-22T03:03:26.633Z,95085.27
2018-11-22T03:05:57.876Z,95085.95
2018-11-22T03:08:29.146Z,95088.66
2018-11-22T03:11:00.363Z,95084.05
2018-11-22T03:13:31.543Z,95084.42
2018-11-22T03:16:02.834Z,95097.78
2018-11-22T03:18:34.190Z,95088.04
2018-11-22T03:21:05.465Z,95093.88
2018-11-22T03:23:36.672Z,95098.81
2018-11-22T03:26:08.043Z,95089.63
2018-11-22T03:28:39.226Z,95098.89
2018-11-22T03:31:10.426Z,95096.23
2018-11-22T03:33:41.642Z,95100.95
2018-11-22T03:36:14.077Z,95096.94
2018-11-22T03:38:45.259Z,95103.75
2018-11-22T03:41:16.425Z,95104.66
2018-11-22T03:43:47.523Z,95105.38
2018-11-22T03:46:18.699Z,95098.98
2018-11-22T03:48:49.875Z,95105.70
2018-11-22T03:51:21.029Z,95100.13
2018-11-22T03:53:53.445Z,95103.37
2018-11-22T03:56:24.622Z,95102.52
2018-11-22T03:58:55.809Z,95105.00
2018-11-22T04:01:27.119Z,95110.63
2018-11-22T04:03:58.446Z,95102.91
2018-11-22T04:06:29.617Z,95096.20
2018-11-22T04:09:00.948Z,95093.02
2018-11-22T04:11:33.074Z,95103.75
2018-11-22T04:14:04.249Z,95103.06
2018-11-22T04:16:35.433Z,95108.23
2018-11-22T04:19:06.740Z,95105.95
2018-11-22T04:21:43.452Z,95107.53
2018-11-22T04:24:15.082Z,95113.18
2018-11-22T04:26:46.307Z,95113.67
2018-11-22T04:29:17.529Z,95113.36
2018-11-22T04:31:48.831Z,95110.92
2018-11-22T04:34:20.009Z,95114.80
2018-11-22T04:36:51.192Z,95112.47
2018-11-22T04:39:22.398Z,95118.67
2018-11-22T04:41:53.715Z,95120.80
2018-11-22T04:44:24.937Z,95120.67
2018-11-22T04:46:56.172Z,95115.44
2018-11-22T04:49:27.738Z,95118.31
2018-11-22T04:51:58.907Z,95106.41
2018-11-22T04:54:30.183Z,95111.23
2018-11-22T04:57:01.425Z,95111.78
2018-11-22T04:59:32.782Z,95114.73
2018-11-22T05:02:04.066Z,95112.48
2018-11-22T05:04:36.508Z,95106.67
2018-11-22T05:07:07.981Z,95100.71
2018-11-22T05:09:39.073Z,95106.80
2018-11-22T05:12:10.395Z,95115.91
2018-11-22T05:14:41.595Z,95108.63
2018-11-22T05:17:12.781Z,95118.17
2018-11-22T05:19:43.980Z,95112.28
2018-11-22T05:22:15.198Z,95119.98
2018-11-22T05:24:47.053Z,95119.64
2018-11-22T05:27:18.245Z,95114.77
2018-11-22T05:29:49.470Z,95121.14
2018-11-22T05:32:20.681Z,95121.83
2018-11-22T05:34:51.804Z,95127.16
2018-11-22T05:37:23.077Z,95129.31
2018-11-22T05:39:54.288Z,95124.26
2018-11-22T05:42:25.997Z,95127.45
2018-11-22T05:44:57.199Z,95119.30
2018-11-22T05:47:28.304Z,95118.39
2018-11-22T05:49:59.689Z,95121.34
2018-11-22T05:52:30.876Z,95122.20
2018-11-22T05:55:02.169Z,95117.10
2018-11-22T05:57:33.404Z,95122.00
2018-11-22T06:00:05.292Z,95125.67
2018-11-22T06:02:36.499Z,95127.30
2018-11-22T06:05:09.011Z,95122.41
2018-11-22T06:07:40.297Z,95129.57
2018-11-22T06:10:15.264Z,95124.47
2018-11-22T06:12:46.683Z,95126.81
2018-11-22T06:15:18.122Z,95124.17
2018-11-22T06:17:49.946Z,95127.78
2018-11-22T06:20:22.642Z,95133.27
2018-11-22T06:22:55.592Z,95132.78
2018-11-22T06:25:26.815Z,95129.19
2018-11-22T06:27:58.495Z,95128.81
2018-11-22T06:30:31.238Z,95139.04
2018-11-22T06:33:03.425Z,95139.61
2018-11-22T06:35:34.873Z,95134.15
2018-11-22T06:38:06.105Z,95134.17
2018-11-22T06:40:37.316Z,95135.33
2018-11-22T06:43:08.555Z,95135.78
2018-11-22T06:45:39.748Z,95133.70
2018-11-22T06:48:10.950Z,95132.98
2018-11-22T06:50:42.225Z,95131.31
2018-11-22T06:53:13.450Z,95140.07
2018-11-22T06:55:47.849Z,95142.52
2018-11-22T06:58:15.920Z,95147.61
2018-11-22T07:00:47.225Z,95150.43
2018-11-22T07:03:18.531Z,95153.08
2018-11-22T07:05:49.811Z,95143.28
2018-11-22T07:08:21.100Z,95153.08
2018-11-22T07:10:52.290Z,95154.47
2018-11-22T07:13:23.616Z,95155.13
2018-11-22T07:15:54.922Z,95157.50
2018-11-22T07:18:27.292Z,95158.33
2018-11-22T07:20:58.512Z,95159.56
2018-11-22T07:23:29.747Z,95155.88
2018-11-22T07:26:00.958Z,95153.28
2018-11-22T07:28:32.169Z,95153.58
2018-11-22T07:31:03.371Z,95151.68
2018-11-22T07:33:38.264Z,95150.66
2018-11-22T07:36:05.734Z,95160.12
2018-11-22T07:38:36.871Z,95156.64
2018-11-22T07:41:08.223Z,95140.92
2018-11-22T07:43:39.514Z,95151.17
2018-11-22T07:46:10.750Z,95147.23
2018-11-22T07:48:41.954Z,95147.13
2018-11-22T07:51:13.170Z,95147.33
2018-11-22T07:53:45.404Z,95159.77
2018-11-22T07:56:16.584Z,95162.89
2018-11-22T07:58:47.771Z,95154.24
2018-11-22T08:01:19.027Z,95155.69
2018-11-22T08:03:50.283Z,95162.88
2018-11-22T08:06:21.498Z,95159.44
2018-11-22T08:08:52.686Z,95162.56
2018-11-22T08:11:24.365Z,95161.59
2018-11-22T08:13:55.672Z,95165.42
2018-11-22T08:16:26.854Z,95158.57
2018-11-22T08:18:58.067Z,95161.67
2018-11-22T08:21:29.264Z,95162.50
2018-11-22T08:24:00.493Z,95164.20
2018-11-22T08:26:31.804Z,95162.81
2018-11-22T08:29:04.230Z,95163.57
2018-11-22T08:31:35.506Z,95168.02
2018-11-22T08:34:06.802Z,95149.17
2018-11-22T08:36:38.013Z,95149.40
2018-11-22T08:39:11.377Z,95162.20
2018-11-22T08:44:13.137Z,95152.94
2018-11-22T08:46:44.387Z,95155.07
2018-11-22T08:49:15.600Z,95150.12
2018-11-22T08:51:46.808Z,95151.84
2018-11-22T08:54:17.996Z,95152.86
2018-11-22T08:56:49.324Z,95156.89
2018-11-22T08:59:20.528Z,95159.32
2018-11-22T09:01:51.751Z,95165.97
2018-11-22T09:06:53.322Z,95161.97
2018-11-22T09:09:24.597Z,95159.44
2018-11-22T09:11:55.772Z,95157.54
2018-11-22T09:14:27.070Z,95160.95
2018-11-22T09:16:58.335Z,95161.59
2018-11-22T09:19:29.541Z,95167.09
2018-11-22T09:22:01.384Z,95164.24
2018-11-22T09:24:32.568Z,95165.07
2018-11-22T09:27:03.794Z,95158.36
2018-11-22T09:29:39.497Z,95164.30
2018-11-22T09:32:07.279Z,95160.51
2018-11-22T09:34:38.492Z,95162.70
2018-11-22T09:37:09.746Z,95165.24
2018-11-22T09:39:41.168Z,95164.80
2018-11-22T09:42:12.665Z,95165.13
2018-11-22T09:44:43.928Z,95157.52
2018-11-22T09:47:15.120Z,95163.36
2018-11-22T09:49:46.356Z,95164.29
2018-11-22T09:52:17.539Z,95173.11
2018-11-22T09:54:48.761Z,95167.06
2018-11-22T09:57:19.979Z,95158.08
2018-11-22T09:59:51.196Z,95161.36
2018-11-22T10:02:22.391Z,95166.73
2018-11-22T10:04:53.795Z,95167.63
2018-11-22T10:07:25.167Z,95162.28
2018-11-22T10:09:56.441Z,95162.70
2018-11-22T10:12:27.824Z,95149.57
2018-11-22T10:14:59.540Z,95154.65
2018-11-22T10:17:30.721Z,95144.69
2018-11-22T10:20:01.897Z,95146.78
2018-11-22T10:22:33.223Z,95147.88
2018-11-22T10:25:04.565Z,95151.21
2018-11-22T10:27:35.783Z,95141.52
2018-11-22T10:30:14.839Z,95151.56
2018-11-22T10:32:53.136Z,95143.77
2018-11-22T10:35:25.838Z,95139.64
2018-11-22T10:37:57.376Z,95140.63
2018-11-22T10:40:28.945Z,95133.58
2018-11-22T10:45:34.788Z,95131.11
2018-11-22T10:48:08.003Z,95124.20
2018-11-22T10:50:39.369Z,95124.14
2018-11-22T10:53:10.545Z,95130.84
2018-11-22T10:55:43.264Z,95129.98
2018-11-22T10:58:14.351Z,95131.86
2018-11-22T11:01:02.695Z,95133.42
2018-11-22T11:03:43.013Z,95134.44
2018-11-22T11:06:31.809Z,95123.70
2018-11-22T11:09:03.140Z,95121.28
2018-11-22T11:11:34.282Z,95114.64
2018-11-22T11:14:05.476Z,95115.25
2018-11-22T11:16:36.654Z,95117.31
2018-11-22T11:19:07.976Z,95119.16
2018-11-22T11:21:39.145Z,95114.87
2018-11-22T11:24:10.320Z,95108.63
2018-11-22T11:26:41.403Z,95109.36
2018-11-22T11:29:12.842Z,95111.90
2018-11-22T11:31:44.242Z,95112.58
2018-11-22T11:34:15.400Z,95113.52
2018-11-22T11:36:46.473Z,95109.09
2018-11-22T11:39:17.567Z,95107.43
2018-11-22T11:41:48.726Z,95099.06
2018-11-22T11:44:19.912Z,95102.98
2018-11-22T11:46:51.088Z,95111.17
2018-11-22T11:49:22.910Z,95113.09
2018-11-22T11:51:54.113Z,95107.19
2018-11-22T11:54:25.093Z,95103.61
2018-11-22T11:56:56.270Z,95095.73
2018-11-22T11:59:27.414Z,95097.03
2018-11-22T12:01:58.513Z,95108.81
2018-11-22T12:04:29.683Z,95106.55
2018-11-22T12:07:01.790Z,95094.61
2018-11-22T12:09:32.849Z,95105.45
2018-11-22T12:12:03.913Z,95095.52
2018-11-22T12:14:35.013Z,95091.89
2018-11-22T12:17:06.121Z,95094.91
2018-11-22T12:19:37.243Z,95086.50
2018-11-22T12:22:08.573Z,95089.22
2018-11-22T12:24:41.000Z,95092.61
2018-11-22T12:27:12.096Z,95092.15
2018-11-22T12:29:43.163Z,95091.16
2018-11-22T12:32:31.182Z,95089.02
2018-11-22T12:35:39.561Z,95085.49
2018-11-22T12:38:27.664Z,95090.34
2018-11-22T12:40:58.814Z,95085.82
2018-11-22T12:43:30.034Z,95082.80
2018-11-22T12:46:01.160Z,95087.94
2018-11-22T12:48:32.467Z,95084.59
2018-11-22T12:51:03.662Z,95088.70
2018-11-22T12:53:34.656Z,95083.30
2018-11-22T12:56:05.923Z,95084.59
2018-11-22T12:58:37.362Z,95080.97
2018-11-22T13:01:08.844Z,95080.84
2018-11-22T13:03:40.041Z,95086.52
2018-11-22T13:06:11.461Z,95083.17
2018-11-22T13:08:42.638Z,95076.56
2018-11-22T13:11:13.835Z,95076.14
2018-11-22T13:13:45.237Z,95072.62
2018-11-22T13:16:16.506Z,95065.91
2018-11-22T13:18:47.735Z,95065.56
2018-11-22T13:21:18.937Z,95069.98
2018-11-22T13:23:50.363Z,95076.87
2018-11-22T13:26:21.575Z,95073.94
2018-11-22T13:28:52.858Z,95071.98
2018-11-22T13:31:24.034Z,95081.53
2018-11-22T13:33:55.224Z,95074.63
2018-11-22T13:36:26.445Z,95078.10
2018-11-22T13:38:57.640Z,95078.70
2018-11-22T13:41:29.309Z,95074.02
2018-11-22T13:44:00.517Z,95080.53
2018-11-22T13:46:31.697Z,95077.45
2018-11-22T13:49:02.893Z,95075.75
2018-11-22T13:51:34.146Z,95083.20
2018-11-22T13:54:05.329Z,95074.53
2018-11-22T13:56:36.614Z,95080.05
2018-11-22T13:59:58.164Z,95100.06
2018-11-22T14:02:22.234Z,95096.83
2018-11-22T14:04:51.547Z,95098.30
2018-11-22T14:07:20.891Z,95097.97
2018-11-22T14:09:50.210Z,95115.16
2018-11-22T14:12:19.542Z,95111.70
2018-11-22T14:14:48.871Z,95116.45
2018-11-22T14:17:18.210Z,95122.06
2018-11-22T14:19:47.509Z,95121.71
2018-11-22T14:22:16.751Z,95119.06
2018-11-22T14:24:46.041Z,95121.19
2018-11-22T14:27:15.320Z,95123.85
2018-11-22T14:29:44.691Z,95114.78
2018-11-22T14:32:14.043Z,95125.38
2018-11-22T14:34:43.382Z,95124.52
2018-11-22T14:37:12.812Z,95128.94
2018-11-22T14:39:42.179Z,95126.11
2018-11-22T14:42:11.508Z,95137.02
2018-11-22T14:44:40.888Z,95122.11
2018-11-22T14:47:10.258Z,95132.14
2018-11-22T14:49:39.612Z,95134.66
2018-11-22T14:52:09.050Z,95132.90
2018-11-22T14:54:38.424Z,95131.26
2018-11-22T14:57:07.829Z,95125.06
2018-11-22T14:59:37.199Z,95135.95
2018-11-22T15:02:06.586Z,95137.14
2018-11-22T15:04:35.921Z,95137.61
2018-11-22T15:07:05.410Z,95134.05
2018-11-22T15:09:34.754Z,95138.70
2018-11-22T15:12:04.082Z,95137.55
2018-11-22T15:14:33.421Z,95134.95
2018-11-22T15:17:02.746Z,95135.94
2018-11-22T15:19:32.110Z,95135.09
2018-11-22T15:22:01.415Z,95133.53
2018-11-22T15:24:30.722Z,95138.81
2018-11-22T15:27:00.040Z,95136.63
2018-11-22T15:29:29.327Z,95136.05
2018-11-22T15:31:59.010Z,95146.05
2018-11-22T15:34:28.327Z,95133.58
2018-11-22T15:36:57.691Z,95151.80
2018-11-22T15:39:27.043Z,95150.38
2018-11-22T15:41:56.362Z,95143.97
2018-11-22T15:44:25.698Z,95156.62
2018-11-22T15:46:55.023Z,95152.80
2018-11-22T15:49:24.379Z,95162.50
2018-11-22T15:51:53.720Z,95152.66
2018-11-22T15:54:23.068Z,95163.64
2018-11-22T15:56:52.379Z,95172.53
2018-11-22T15:59:21.747Z,95175.08
2018-11-22T16:01:51.371Z,95177.84
2018-11-22T16:04:20.703Z,95177.53
2018-11-22T16:06:50.083Z,95180.64
2018-11-22T16:09:19.735Z,95173.46
2018-11-22T16:11:49.103Z,95176.99
2018-11-22T16:14:18.430Z,95183.70
2018-11-22T16:16:47.806Z,95184.30
2018-11-22T16:19:17.143Z,95180.75
2018-11-22T16:21:46.525Z,95181.20
2018-11-22T16:24:15.884Z,95179.52
2018-11-22T16:26:45.235Z,95178.86
2018-11-22T16:29:14.606Z,95189.74
2018-11-22T16:31:43.938Z,95196.30
2018-11-22T16:34:13.299Z,95194.38
2018-11-22T16:36:42.651Z,95184.45
2018-11-22T16:39:12.036Z,95195.23
2018-11-22T16:41:41.358Z,95196.69
2018-11-22T16:44:10.687Z,95193.96
2018-11-22T16:46:40.294Z,95195.20
2018-11-22T16:49:09.627Z,95188.29
2018-11-22T16:51:38.944Z,95202.80
2018-11-22T16:54:08.288Z,95189.86
2018-11-22T16:56:37.640Z,95193.91
2018-11-22T16:59:07.023Z,95204.17
2018-11-22T17:01:36.344Z,95208.91
2018-11-22T17:04:05.995Z,95210.30
2018-11-22T17:06:35.350Z,95212.33
2018-11-22T17:09:06.386Z,95203.88
2018-11-22T17:11:36.467Z,95208.63
2018-11-22T17:14:06.616Z,95217.36
2018-11-22T17:16:36.136Z,95220.23
2018-11-22T17:19:05.463Z,95207.70
2018-11-22T17:21:35.106Z,95213.28
2018-11-22T17:24:04.883Z,95214.40
2018-11-22T17:26:34.261Z,95216.27
2018-11-22T17:29:03.618Z,95215.33
2018-11-22T17:31:33.140Z,95204.30
2018-11-22T17:34:02.496Z,95214.25
2018-11-22T17:36:32.868Z,95211.70
2018-11-22T17:39:02.466Z,95207.32
2018-11-22T17:41:31.880Z,95209.70
2018-11-22T17:44:01.228Z,95212.84
2018-11-22T17:46:30.597Z,95214.08
2018-11-22T17:49:01.234Z,95209.20
2018-11-22T17:51:30.563Z,95210.01
2018-11-22T17:54:00.012Z,95214.56
2018-11-22T17:56:29.663Z,95218.09
2018-11-22T17:58:59.030Z,95219.41
2018-11-22T18:01:29.683Z,95196.70
2018-11-22T18:03:59.064Z,95214.28
2018-11-22T18:06:28.682Z,95215.66
2018-11-22T18:08:58.071Z,95225.07
2018-11-22T18:11:27.411Z,95225.88
2018-11-22T18:18:55.176Z,95226.12
2018-11-22T18:21:24.520Z,95224.27
2018-11-22T18:23:53.936Z,95225.50
2018-11-22T18:26:23.318Z,95220.53
2018-11-22T18:28:52.740Z,95222.16
2018-11-22T18:31:22.074Z,95211.65
2018-11-22T18:33:51.459Z,95215.13
2018-11-22T18:36:22.119Z,95222.92
2018-11-22T18:38:54.495Z,95233.59
2018-11-22T18:41:23.847Z,95228.38
2018-11-22T18:43:53.190Z,95220.22
2018-11-22T18:46:22.572Z,95228.31
2018-11-22T18:48:51.987Z,95228.97
2018-11-22T18:51:21.322Z,95229.15
2018-11-22T18:53:50.716Z,95234.23
2018-11-22T18:56:20.095Z,95242.46
2018-11-22T18:58:49.450Z,95246.97
2018-11-22T19:01:18.815Z,95242.54
2018-11-22T19:03:48.174Z,95242.58
2018-11-22T19:06:17.516Z,95253.59
2018-11-22T19:08:47.143Z,95254.65
2018-11-22T19:11:16.470Z,95248.75
2018-11-22T19:13:45.802Z,95251.62
2018-11-22T19:16:15.155Z,95254.08
2018-11-22T19:18:44.513Z,95248.21
2018-11-22T19:21:13.886Z,95252.95
2018-11-22T19:23:43.230Z,95246.97
2018-11-22T19:26:12.586Z,95256.55
2018-11-22T19:28:42.044Z,95248.38
2018-11-22T19:31:11.423Z,95251.74
2018-11-22T19:33:40.781Z,95252.80
2018-11-22T19:36:10.171Z,95253.17
2018-11-22T19:38:39.535Z,95262.47
2018-11-22T19:41:08.903Z,95259.16
2018-11-22T19:43:38.251Z,95253.55
2018-11-22T19:46:07.647Z,95258.42
2018-11-22T19:48:36.970Z,95254.74
2018-11-22T19:51:06.504Z,95260.00
2018-11-22T19:53:35.882Z,95253.30
2018-11-22T19:56:05.259Z,95262.48
2018-11-22T19:58:34.624Z,95261.09
2018-11-22T20:01:07.749Z,95266.22
2018-11-22T20:03:33.460Z,95261.83
2018-11-22T20:06:02.780Z,95255.50
2018-11-22T20:08:32.141Z,95258.53
2018-11-22T20:11:01.498Z,95261.17
2018-11-22T20:13:30.899Z,95256.76
2018-11-22T20:16:00.243Z,95258.44
2018-11-22T20:18:29.600Z,95262.40
2018-11-22T20:20:58.983Z,95258.98
2018-11-22T20:23:28.334Z,95257.96
2018-11-22T20:25:57.755Z,95260.64
2018-11-22T20:28:27.097Z,95255.94
2018-11-22T20:30:56.463Z,95256.14
2018-11-22T20:35:52.451Z,95259.52
2018-11-22T20:38:21.811Z,95257.52
2018-11-22T20:40:57.258Z,95270.09
2018-11-22T20:43:21.936Z,95269.28
2018-11-22T20:45:51.282Z,95266.06
2018-11-22T20:48:20.899Z,95270.84
2018-11-22T20:50:50.227Z,95264.14
2018-11-22T20:53:19.608Z,95262.93
2018-11-22T20:55:48.991Z,95267.78
2018-11-22T20:58:18.400Z,95272.66
2018-11-22T21:00:47.776Z,95276.59
2018-11-22T21:03:17.123Z,95268.15
2018-11-22T21:05:46.467Z,95272.73
2018-11-22T21:08:15.814Z,95270.09
2018-11-22T21:10:45.201Z,95273.54
2018-11-22T21:13:14.537Z,95275.66
2018-11-22T21:15:43.955Z,95274.75
2018-11-22T21:18:13.312Z,95269.98
2018-11-22T21:20:42.813Z,95275.31
2018-11-22T21:23:12.442Z,95279.69
2018-11-22T21:25:41.762Z,95278.23
2018-11-22T21:28:11.077Z,95271.55
2018-11-22T21:30:40.881Z,95280.31
2018-11-22T21:33:10.209Z,95267.34
2018-11-22T21:35:39.591Z,95271.14
2018-11-22T21:38:09.410Z,95271.33
2018-11-22T21:40:39.955Z,95263.99
2018-11-22T21:43:09.319Z,95263.19
2018-11-22T21:45:38.727Z,95265.66
2018-11-22T21:48:08.115Z,95256.64
2018-11-22T21:50:37.513Z,95268.02
2018-11-22T21:53:08.418Z,95262.89
2018-11-22T21:55:37.795Z,95272.20
2018-11-22T21:58:07.174Z,95268.00
2018-11-22T22:00:39.355Z,95277.25
2018-11-22T22:03:10.272Z,95272.58
2018-11-22T22:05:40.210Z,95275.58
2018-11-22T22:08:09.610Z,95276.95
2018-11-22T22:10:38.991Z,95275.59
2018-11-22T22:13:08.402Z,95273.95
2018-11-22T22:15:38.222Z,95282.95
2018-11-22T22:18:08.852Z,95276.23
2018-11-22T22:20:38.426Z,95274.78
2018-11-22T22:23:13.188Z,95276.34
2018-11-22T22:25:37.330Z,95274.66
2018-11-22T22:28:06.645Z,95274.00
2018-11-22T22:30:36.085Z,95283.02
2018-11-22T22:33:06.674Z,95285.86
2018-11-22T22:35:36.094Z,95289.98
2018-11-22T22:38:05.568Z,95276.03
2018-11-22T22:40:41.232Z,95284.83
2018-11-22T22:43:10.603Z,95288.48
2018-11-22T22:45:39.925Z,95291.95
2018-11-22T22:48:10.066Z,95288.77
2018-11-22T22:50:39.431Z,95291.61
2018-11-22T22:53:08.816Z,95292.39
2018-11-22T22:55:38.152Z,95291.44
2018-11-22T22:58:07.561Z,95279.80
2018-11-22T23:00:41.213Z,95288.16
2018-11-22T23:03:10.622Z,95281.73
2018-11-22T23:05:40.024Z,95285.02
2018-11-22T23:08:09.416Z,95294.84
2018-11-22T23:10:38.784Z,95290.57
2018-11-22T23:13:08.395Z,95296.85
2018-11-22T23:15:37.758Z,95291.26
2018-11-22T23:18:07.189Z,95290.15
2018-11-22T23:20:37.597Z,95296.72
2018-11-22T23:23:06.967Z,95294.66
2018-11-22T23:25:36.314Z,95295.67
2018-11-22T23:28:05.708Z,95291.23
2018-11-22T23:30:35.810Z,95292.44
2018-11-22T23:33:06.520Z,95295.46
2018-11-22T23:35:35.940Z,95301.44
2018-11-22T23:38:05.376Z,95291.86
2018-11-22T23:40:36.048Z,95293.07
2018-11-22T23:43:06.198Z,95298.11
2018-11-22T23:45:35.155Z,95296.02
2018-11-22T23:48:04.596Z,95286.64
2018-11-22T23:50:34.428Z,95304.03
2018-11-22T23:53:04.763Z,95299.47
2018-11-22T23:55:34.139Z,95302.23
2018-11-22T23:58:03.478Z,95306.35
